createdAt,value
2022-10-24T01:34:49.397Z,1.08
2022-10-24T01:39:15.529Z,1.25
2022-10-24T01:42:49.328Z,0.82
2022-10-24T01:46:49.775Z,0.95
2022-10-24T01:50:26.301Z,0.68
2022-10-24T01:53:58.505Z,0.50
2022-10-24T01:57:29.473Z,0.70
2022-10-24T02:01:02.222Z,0.73
2022-10-24T02:04:37.192Z,1.10
2022-10-24T02:08:25.764Z,1.25
2022-10-24T02:11:57.308Z,0.80
2022-10-24T02:16:05.187Z,0.82
2022-10-24T02:19:37.296Z,0.60
2022-10-24T02:23:32.030Z,0.95
2022-10-24T02:27:37.144Z,0.55
2022-10-24T02:31:26.209Z,0.88
2022-10-24T02:35:01.928Z,0.40
2022-10-24T03:04:28.921Z,1.80
2022-10-24T03:07:59.612Z,1.08
2022-10-24T03:11:30.734Z,1.80
2022-10-24T03:15:02.161Z,0.77
2022-10-24T03:18:33.254Z,0.90
2022-10-24T03:22:04.058Z,1.13
2022-10-24T03:25:35.243Z,0.40
2022-10-24T03:29:06.132Z,0.90
2022-10-24T03:32:37.749Z,1.77
2022-10-24T03:36:20.104Z,1.25
2022-10-24T03:39:51.229Z,1.15
2022-10-24T03:43:22.152Z,2.37
2022-10-24T03:46:53.319Z,1.35
2022-10-24T03:50:24.717Z,1.43
2022-10-24T03:53:56.311Z,0.55
2022-10-24T03:57:27.326Z,0.70
2022-10-24T04:00:58.309Z,0.63
2022-10-24T04:04:29.194Z,0.63
2022-10-24T04:08:01.238Z,0.80
2022-10-24T04:11:33.709Z,0.52
2022-10-24T04:15:05.226Z,0.70
2022-10-24T04:18:36.587Z,1.15
2022-10-24T04:22:07.797Z,0.73
2022-10-24T04:25:38.757Z,0.65
2022-10-24T04:29:10.230Z,0.85
2022-10-24T04:32:41.877Z,0.88
2022-10-24T04:39:36.869Z,1.20
2022-10-24T04:43:08.313Z,0.65
2022-10-24T04:46:51.319Z,0.52
2022-10-24T04:50:22.608Z,0.57
2022-10-24T04:53:53.240Z,1.00
2022-10-24T04:57:23.667Z,0.55
2022-10-24T05:00:55.197Z,0.65
2022-10-24T05:04:26.437Z,0.22
2022-10-24T05:07:57.056Z,0.50
2022-10-24T05:11:28.012Z,0.60
2022-10-24T05:14:59.491Z,0.30
2022-10-24T05:18:30.139Z,0.60
2022-10-24T05:22:02.590Z,0.55
2022-10-24T05:25:35.402Z,0.65
2022-10-24T05:32:42.260Z,0.43
2022-10-24T05:36:14.458Z,0.30
2022-10-24T05:39:45.501Z,0.40
2022-10-24T05:43:16.637Z,0.30
2022-10-24T05:46:47.479Z,0.30
2022-10-24T05:50:18.495Z,0.30
2022-10-24T05:53:50.131Z,0.30
2022-10-24T05:57:20.833Z,0.40
2022-10-24T06:00:53.957Z,0.30
2022-10-24T06:04:25.329Z,0.30
2022-10-24T06:07:56.180Z,0.73
2022-10-24T06:11:28.427Z,0.40
2022-10-24T06:14:59.438Z,0.40
2022-10-24T06:18:30.304Z,0.40
2022-10-24T06:22:01.242Z,0.20
2022-10-24T06:25:32.988Z,0.30
2022-10-24T06:29:04.531Z,0.35
2022-10-24T06:32:35.894Z,0.17
2022-10-24T06:36:18.511Z,0.50
2022-10-24T06:39:49.725Z,0.63
2022-10-24T06:43:21.551Z,0.60
2022-10-24T06:46:54.177Z,0.38
2022-10-24T06:50:25.203Z,0.40
2022-10-24T06:53:56.475Z,0.50
2022-10-24T06:57:27.342Z,0.40
2022-10-24T07:00:58.604Z,0.40
2022-10-24T07:04:29.952Z,0.60
2022-10-24T07:08:01.532Z,0.40
2022-10-24T07:11:33.109Z,0.75
2022-10-24T07:15:04.167Z,0.40
2022-10-24T07:18:49.808Z,0.50
2022-10-24T07:22:20.619Z,0.47
2022-10-24T07:25:51.985Z,0.77
2022-10-24T07:29:24.529Z,0.82
2022-10-24T07:32:56.042Z,0.45
2022-10-24T07:36:41.495Z,0.68
2022-10-24T07:40:13.917Z,0.40
2022-10-24T07:43:45.520Z,1.13
2022-10-24T07:50:40.653Z,0.60
2022-10-24T07:57:34.011Z,0.52
2022-10-24T08:01:06.382Z,0.80
2022-10-24T08:04:38.106Z,1.30
2022-10-24T08:08:30.896Z,1.30
2022-10-24T08:12:04.197Z,0.55
2022-10-24T08:15:35.586Z,1.60
2022-10-24T08:19:07.355Z,1.98
2022-10-24T08:22:38.989Z,0.80
2022-10-24T08:26:09.849Z,1.90
2022-10-24T08:29:41.023Z,0.68
2022-10-24T08:33:17.311Z,0.73
2022-10-24T08:37:02.564Z,0.75
2022-10-24T08:40:37.149Z,0.82
2022-10-24T08:44:09.090Z,2.05
2022-10-24T09:00:27.171Z,1.00
2022-10-24T09:04:13.750Z,0.60
2022-10-24T13:35:30.337Z,1.80
2022-10-24T13:51:36.500Z,1.63
2022-10-24T13:55:14.977Z,1.60
2022-10-24T13:59:11.288Z,1.00
2022-10-24T14:02:51.062Z,1.50
2022-10-24T14:30:33.614Z,1.33
2022-10-24T14:34:32.594Z,0.90
2022-10-24T14:38:31.371Z,0.85
2022-10-24T14:42:24.394Z,1.00
2022-10-24T15:55:55.976Z,1.83
2022-10-24T16:03:11.810Z,2.47
2022-10-24T16:06:43.098Z,1.17
2022-10-24T16:10:14.056Z,2.13
2022-10-24T16:13:45.197Z,1.17
2022-10-24T16:20:54.370Z,1.75
2022-10-24T16:24:26.858Z,1.20
2022-10-24T16:27:57.397Z,1.00
2022-10-24T16:31:30.077Z,1.42
2022-10-24T16:35:00.705Z,1.30
2022-10-24T16:38:34.184Z,1.50
2022-10-24T16:42:04.924Z,1.20
2022-10-24T16:45:36.995Z,1.45
2022-10-24T16:49:08.257Z,1.45
2022-10-24T16:52:39.801Z,1.43
2022-10-24T16:56:22.867Z,1.45
2022-10-24T16:59:54.471Z,1.83
2022-10-24T17:03:27.914Z,1.60
2022-10-24T17:07:00.906Z,1.95
2022-10-24T19:20:31.995Z,4.40
2022-10-24T19:24:03.310Z,4.75
2022-10-24T19:27:34.797Z,3.75
2022-10-24T19:31:07.362Z,3.17
2022-10-24T19:34:38.717Z,2.47
2022-10-24T19:38:09.498Z,2.92
2022-10-24T19:41:43.247Z,1.83
2022-10-24T19:45:14.061Z,1.88
2022-10-24T19:48:45.172Z,1.43
2022-10-24T19:52:16.084Z,2.22
2022-10-24T19:55:47.245Z,1.40
2022-10-24T19:59:18.694Z,1.60
2022-10-24T20:02:49.745Z,2.28
2022-10-24T20:06:20.712Z,1.73
2022-10-24T20:09:51.897Z,1.30
2022-10-24T20:13:22.882Z,1.17
2022-10-24T20:16:54.479Z,1.60
2022-10-24T20:20:25.451Z,1.50
2022-10-24T20:23:57.987Z,1.63
2022-10-24T20:27:29.038Z,1.90
2022-10-24T20:31:15.195Z,1.67
2022-10-24T20:34:46.777Z,1.43
2022-10-24T20:38:17.714Z,1.65
2022-10-24T20:41:51.770Z,2.43
2022-10-24T20:45:24.791Z,3.78
2022-10-24T20:48:55.770Z,2.67
2022-10-24T20:52:26.868Z,3.73
2022-10-24T20:55:58.131Z,2.03
2022-10-24T20:59:40.782Z,3.42
